Time;durP1;ratioP1;P1;durP2;ratioP2;P2;SDS_P1;SDS_P2;PMS_P1;PMS_P2;Temp;Humidity;BMP_temperature;BMP_pressure;BME280_temperature;BME280_humidity;BME280_pressure;Samples;Min_cycle;Max_cycle;Signal;HPM_P1;HPM_P2
2021/01/11 00:01:23;;;;;;;25.10;15.00;;;0.90;99.90;;;;;;5054083;28;20055;-60
2021/01/11 00:03:48;;;;;;;26.35;16.40;;;0.90;99.90;;;;;;5053744;28;20402;-59
2021/01/11 00:06:14;;;;;;;21.95;14.80;;;0.90;99.90;;;;;;5054552;28;20036;-62
2021/01/11 00:08:40;;;;;;;26.75;15.52;;;0.90;99.90;;;;;;5055135;28;20025;-63
2021/01/11 00:11:05;;;;;;;26.02;15.57;;;0.80;99.90;;;;;;5054157;28;20271;-61
2021/01/11 00:13:31;;;;;;;25.23;15.20;;;0.70;99.90;;;;;;5059278;28;20013;-62
2021/01/11 00:15:56;;;;;;;24.88;15.88;;;0.80;99.90;;;;;;5073106;28;20051;-61
2021/01/11 00:18:22;;;;;;;23.23;15.07;;;0.70;99.90;;;;;;5073763;28;20074;-61
2021/01/11 00:20:48;;;;;;;26.38;15.75;;;0.80;99.90;;;;;;5073166;28;20501;-59
2021/01/11 00:23:13;;;;;;;24.35;14.02;;;0.70;99.90;;;;;;5073597;28;20081;-60
2021/01/11 00:25:39;;;;;;;27.00;15.93;;;0.60;99.90;;;;;;5073526;28;20020;-61
2021/01/11 00:28:04;;;;;;;27.80;16.73;;;0.40;99.90;;;;;;5067989;28;20105;-60
2021/01/11 00:30:30;;;;;;;26.60;15.98;;;0.30;99.90;;;;;;5051885;28;20450;-59
2021/01/11 00:32:56;;;;;;;26.10;15.93;;;0.20;99.90;;;;;;5052032;28;20469;-60
2021/01/11 00:35:21;;;;;;;23.98;15.90;;;0.20;99.90;;;;;;5053669;28;20032;-60
2021/01/11 00:37:47;;;;;;;27.85;15.95;;;0.40;99.90;;;;;;5053155;28;20037;-70
2021/01/11 00:40:13;;;;;;;27.38;16.58;;;0.10;99.90;;;;;;5054003;28;20036;-60
2021/01/11 00:42:39;;;;;;;27.35;16.98;;;0.20;99.90;;;;;;5053233;28;20437;-61
2021/01/11 00:45:06;;;;;;;27.80;16.38;;;0.20;99.90;;;;;;5052272;28;20107;-61
2021/01/11 00:47:41;;;;;;;27.10;17.08;;;0.20;99.90;;;;;;5053300;28;20032;-60
2021/01/11 00:50:08;;;;;;;29.63;16.70;;;0.20;99.90;;;;;;5051059;28;20086;-58
2021/01/11 00:52:37;;;;;;;32.90;18.02;;;0.10;99.90;;;;;;5035258;28;20064;-61
2021/01/11 00:55:09;;;;;;;25.95;17.27;;;0.10;99.90;;;;;;5051559;28;20025;-59
2021/01/11 00:57:35;;;;;;;26.30;17.90;;;0.10;99.90;;;;;;5052904;28;20502;-63
2021/01/11 01:00:01;;;;;;;30.48;18.92;;;0.10;99.90;;;;;;5052358;28;20025;-61
2021/01/11 01:02:26;;;;;;;30.10;17.75;;;0.20;99.90;;;;;;5053105;28;20025;-62
2021/01/11 01:04:52;;;;;;;26.98;16.13;;;0.20;99.90;;;;;;5050965;28;20032;-59
2021/01/11 01:07:19;;;;;;;27.70;16.40;;;0.30;99.90;;;;;;5056033;28;20069;-60
2021/01/11 01:09:45;;;;;;;24.60;15.40;;;0.20;99.90;;;;;;5055866;28;20054;-61
2021/01/11 01:12:10;;;;;;;25.13;15.43;;;0.30;99.90;;;;;;5056942;28;20021;-62
2021/01/11 01:14:36;;;;;;;25.98;15.45;;;0.20;99.90;;;;;;5058134;28;20136;-62
2021/01/11 01:17:02;;;;;;;26.48;16.88;;;0.10;99.90;;;;;;5055333;28;20068;-60
2021/01/11 01:19:27;;;;;;;23.90;15.05;;;0.10;99.90;;;;;;5058018;28;20459;-61
2021/01/11 01:21:53;;;;;;;24.17;14.88;;;0.20;99.90;;;;;;5057883;28;20017;-62
2021/01/11 01:24:18;;;;;;;27.50;14.98;;;0.30;99.90;;;;;;5057753;28;20458;-59
2021/01/11 01:26:44;;;;;;;24.55;15.27;;;0.30;99.90;;;;;;5057975;28;20459;-59
2021/01/11 01:29:10;;;;;;;25.05;16.42;;;0.20;99.90;;;;;;5055600;28;20878;-61
2021/01/11 01:31:35;;;;;;;25.58;16.02;;;0.20;99.90;;;;;;5056884;28;20028;-61
2021/01/11 01:34:01;;;;;;;23.80;14.95;;;0.10;99.90;;;;;;5054838;28;20025;-60
2021/01/11 01:36:27;;;;;;;20.50;14.23;;;0.30;99.90;;;;;;5036435;28;20120;-59
2021/01/11 01:38:53;;;;;;;26.08;14.65;;;0.20;99.90;;;;;;5035238;28;20030;-59
2021/01/11 01:41:18;;;;;;;25.42;14.68;;;0.20;99.90;;;;;;5037855;28;20051;-60
2021/01/11 01:43:44;;;;;;;22.30;13.32;;;0.20;99.90;;;;;;5036087;28;20143;-60
2021/01/11 01:46:15;;;;;;;25.75;15.05;;;0.20;99.90;;;;;;5053160;28;20044;-66
2021/01/11 01:48:42;;;;;;;25.55;15.30;;;0.20;99.90;;;;;;5057278;28;20100;-64
2021/01/11 01:51:08;;;;;;;23.27;14.73;;;0.20;99.90;;;;;;5056210;28;20033;-60
2021/01/11 01:53:34;;;;;;;21.88;13.68;;;0.10;99.90;;;;;;5056582;28;20021;-63
2021/01/11 01:56:01;;;;;;;22.38;14.52;;;-0.20;99.90;;;;;;5056180;28;20506;-59
2021/01/11 01:58:27;;;;;;;27.83;15.77;;;-0.40;99.90;;;;;;5056417;28;20053;-60
2021/01/11 02:00:53;;;;;;;28.95;16.67;;;-0.30;99.90;;;;;;5055694;28;20036;-66
2021/01/11 02:03:18;;;;;;;22.08;13.57;;;-0.60;99.90;;;;;;5054611;28;20041;-61
2021/01/11 02:05:44;;;;;;;22.92;15.43;;;-0.70;99.90;;;;;;5056096;28;20033;-63
2021/01/11 02:08:46;;;;;;;27.17;14.85;;;-0.50;99.90;;;;;;5054325;28;20437;-60
2021/01/11 02:11:21;;;;;;;;;;;-0.60;99.90;;;;;;5032599;28;20412;-59
2021/01/11 02:14:02;;;;;;;24.15;14.25;;;-0.50;99.90;;;;;;5057259;28;19912;-61
2021/01/11 02:16:30;;;;;;;23.83;15.80;;;-0.80;99.90;;;;;;5056441;28;20037;-61
2021/01/11 02:19:17;;;;;;;24.58;14.43;;;-1.10;99.90;;;;;;5057228;28;20021;-59
2021/01/11 02:22:20;;;;;;;21.13;13.40;;;-1.00;99.90;;;;;;5056715;28;20024;-64
2021/01/11 02:25:12;;;;;;;27.40;14.27;;;-0.70;99.90;;;;;;5056088;28;20040;-61
2021/01/11 02:27:55;;;;;;;27.10;16.27;;;-0.70;99.90;;;;;;5055565;28;20025;-60
2021/01/11 02:30:25;;;;;;;25.90;14.85;;;-0.80;99.90;;;;;;5055126;28;20028;-61
2021/01/11 02:33:07;;;;;;;23.85;14.27;;;-0.80;99.90;;;;;;5056354;28;20021;-59
2021/01/11 02:35:48;;;;;;;24.30;14.85;;;-0.80;99.90;;;;;;5056021;28;20029;-60
2021/01/11 02:38:19;;;;;;;23.10;13.80;;;-0.70;99.90;;;;;;5056164;28;20159;-58
2021/01/11 02:40:49;;;;;;;23.35;12.88;;;-0.70;99.90;;;;;;5054936;28;20029;-65
2021/01/11 02:43:15;;;;;;;25.65;16.05;;;-0.70;99.90;;;;;;5056154;28;20697;-59
2021/01/11 02:45:41;;;;;;;24.13;15.25;;;-0.70;99.90;;;;;;5056474;28;20055;-60
2021/01/11 02:48:12;;;;;;;26.90;16.33;;;-0.90;99.90;;;;;;5055433;28;20514;-59
2021/01/11 02:51:06;;;;;;;23.23;14.90;;;-0.90;99.90;;;;;;5055939;28;20057;-66
2021/01/11 02:53:39;;;;;;;27.15;14.88;;;-0.90;99.90;;;;;;5055609;28;20087;-60
2021/01/11 02:56:08;;;;;;;27.67;15.32;;;-0.80;99.90;;;;;;5053060;28;20456;-60
2021/01/11 02:59:07;;;;;;;27.85;14.75;;;-1.20;99.90;;;;;;5055174;28;20025;-61
2021/01/11 03:01:38;;;;;;;28.35;16.13;;;-1.00;99.90;;;;;;5043745;28;20037;-61
2021/01/11 03:04:05;;;;;;;25.83;15.80;;;-1.20;99.90;;;;;;5056028;28;20055;-59
2021/01/11 03:06:32;;;;;;;23.17;13.88;;;-0.90;99.90;;;;;;5055313;28;20087;-59
2021/01/11 03:09:06;;;;;;;23.52;14.98;;;-0.90;99.90;;;;;;5054271;28;20037;-59
2021/01/11 03:11:34;;;;;;;24.35;14.77;;;-1.00;99.90;;;;;;5055816;28;20025;-61
2021/01/11 03:14:00;;;;;;;24.83;14.93;;;-1.00;99.90;;;;;;5055002;28;20482;-61
2021/01/11 03:16:26;;;;;;;24.67;15.32;;;-1.00;99.90;;;;;;5036101;28;20041;-61
2021/01/11 03:18:51;;;;;;;26.50;14.68;;;-1.00;99.90;;;;;;5033934;28;20372;-60
2021/01/11 03:21:17;;;;;;;25.48;14.50;;;-0.90;99.90;;;;;;5034439;28;20032;-60
2021/01/11 03:23:42;;;;;;;24.98;14.57;;;-0.70;99.90;;;;;;5034262;28;20080;-59
2021/01/11 03:26:08;;;;;;;24.40;15.30;;;-0.60;99.90;;;;;;5035196;28;20357;-64
2021/01/11 03:28:34;;;;;;;24.98;15.05;;;-0.80;99.90;;;;;;5034507;28;20352;-59
2021/01/11 03:30:59;;;;;;;22.27;14.68;;;-0.90;99.90;;;;;;5067077;28;20492;-59
2021/01/11 03:33:25;;;;;;;24.83;14.75;;;-0.80;99.90;;;;;;5035407;28;20029;-64
2021/01/11 03:35:50;;;;;;;24.80;14.93;;;-0.70;99.90;;;;;;5033647;28;20120;-59
2021/01/11 03:38:16;;;;;;;23.80;14.82;;;-0.70;99.90;;;;;;5033669;28;20048;-59
2021/01/11 03:40:42;;;;;;;27.95;15.10;;;-0.70;99.90;;;;;;5033101;28;20026;-60
2021/01/11 03:43:07;;;;;;;22.02;13.30;;;-0.70;99.90;;;;;;5033510;28;20021;-59
2021/01/11 03:45:33;;;;;;;25.55;14.95;;;-0.70;99.90;;;;;;5043213;28;20036;-60
2021/01/11 03:47:58;;;;;;;24.80;14.88;;;-0.70;99.90;;;;;;5053194;28;20033;-67
2021/01/11 03:50:24;;;;;;;30.08;15.68;;;-0.70;99.90;;;;;;5053535;28;20047;-58
2021/01/11 03:52:50;;;;;;;21.25;13.80;;;-0.70;99.90;;;;;;5052846;28;20025;-60
2021/01/11 03:55:15;;;;;;;24.77;14.30;;;-0.70;99.90;;;;;;5052298;28;20108;-60
2021/01/11 03:57:43;;;;;;;20.60;12.32;;;-0.80;99.90;;;;;;5052862;28;20029;-59
2021/01/11 04:00:09;;;;;;;25.52;13.52;;;-0.70;99.90;;;;;;5053742;28;20021;-59
2021/01/11 04:02:35;;;;;;;26.90;14.50;;;-0.80;99.90;;;;;;5054051;28;20029;-59
2021/01/11 04:05:01;;;;;;;22.65;13.40;;;-1.10;99.90;;;;;;5052756;28;20025;-59
2021/01/11 04:07:26;;;;;;;22.63;13.80;;;-1.20;99.90;;;;;;5054883;28;20025;-60
2021/01/11 04:09:52;;;;;;;24.83;14.52;;;-1.20;99.90;;;;;;5055117;28;20036;-60
2021/01/11 04:12:17;;;;;;;25.73;14.20;;;-1.20;99.90;;;;;;5055822;28;20029;-60
2021/01/11 04:14:43;;;;;;;22.42;14.10;;;-1.20;99.90;;;;;;5055338;28;20028;-60
2021/01/11 04:17:09;;;;;;;25.25;13.27;;;-1.20;99.90;;;;;;5052813;28;20064;-63
2021/01/11 04:19:34;;;;;;;24.20;13.13;;;-1.30;99.90;;;;;;5052437;28;20043;-59
2021/01/11 04:22:01;;;;;;;24.42;13.52;;;-1.40;99.90;;;;;;5053665;28;20029;-68
2021/01/11 04:24:26;;;;;;;20.05;12.60;;;-1.50;99.90;;;;;;5052480;28;20050;-59
2021/01/11 04:26:52;;;;;;;20.48;12.57;;;-1.50;99.90;;;;;;5053370;28;20536;-59
2021/01/11 04:29:18;;;;;;;24.75;14.48;;;-1.50;99.90;;;;;;5052616;28;20035;-59
2021/01/11 04:31:47;;;;;;;21.27;13.35;;;-1.70;99.90;;;;;;5052730;28;20033;-60
2021/01/11 04:34:14;;;;;;;22.70;12.70;;;-1.80;99.90;;;;;;5053963;28;20021;-59
2021/01/11 04:36:41;;;;;;;17.70;12.18;;;-1.90;99.90;;;;;;5053840;28;20036;-60
2021/01/11 04:39:07;;;;;;;22.40;13.13;;;-1.80;99.90;;;;;;5053094;28;20526;-60
2021/01/11 04:41:35;;;;;;;24.42;12.85;;;-1.90;99.90;;;;;;5051297;28;20076;-60
2021/01/11 04:44:06;;;;;;;20.88;12.50;;;-1.90;99.90;;;;;;5052679;28;20534;-59
2021/01/11 04:46:32;;;;;;;22.00;13.60;;;-1.70;99.90;;;;;;5053441;28;20094;-59
2021/01/11 04:48:58;;;;;;;24.48;14.35;;;-1.70;99.90;;;;;;5053430;28;20355;-60
2021/01/11 04:51:24;;;;;;;20.55;13.27;;;-1.70;99.90;;;;;;5052819;28;20025;-58
2021/01/11 04:53:52;;;;;;;24.90;14.18;;;-1.70;99.90;;;;;;5053486;28;20029;-61
2021/01/11 04:56:19;;;;;;;20.13;11.75;;;-1.60;99.90;;;;;;5052277;28;20032;-59
2021/01/11 04:58:54;;;;;;;23.65;13.85;;;-1.50;99.90;;;;;;5051941;28;20025;-59
2021/01/11 05:01:27;;;;;;;20.65;13.07;;;-1.50;99.90;;;;;;5052598;28;20051;-59
2021/01/11 05:03:58;;;;;;;24.38;12.77;;;-1.60;99.90;;;;;;5052380;28;20083;-60
2021/01/11 05:06:24;;;;;;;21.13;13.02;;;-1.70;99.90;;;;;;5051763;28;20264;-60
2021/01/11 05:08:50;;;;;;;21.13;13.55;;;-1.60;99.90;;;;;;5053063;28;20455;-60
2021/01/11 05:11:16;;;;;;;18.70;12.23;;;-1.60;99.90;;;;;;5054652;28;20033;-61
2021/01/11 05:13:41;;;;;;;21.00;13.75;;;-1.70;99.90;;;;;;5055824;28;20036;-61
2021/01/11 05:16:14;;;;;;;19.35;12.45;;;-1.70;99.90;;;;;;5053897;28;20071;-66
2021/01/11 05:18:41;;;;;;;21.35;12.43;;;-1.70;99.90;;;;;;5053300;28;20086;-58
2021/01/11 05:21:08;;;;;;;361.42;56.08;;;-1.50;99.90;;;;;;5052096;28;20029;-67
2021/01/11 05:23:39;;;;;;;27.95;14.15;;;-0.10;99.90;;;;;;5052351;28;20115;-60
2021/01/11 05:26:16;;;;;;;20.27;12.98;;;-1.10;99.90;;;;;;5085149;28;20108;-66
2021/01/11 05:28:44;;;;;;;20.85;12.75;;;-1.50;99.90;;;;;;5053206;28;20060;-62
2021/01/11 05:31:10;;;;;;;21.00;13.80;;;-1.60;99.90;;;;;;5051544;28;20071;-61
2021/01/11 05:33:52;;;;;;;24.85;13.88;;;-1.60;99.90;;;;;;5052711;28;20063;-60
2021/01/11 05:36:19;;;;;;;21.23;12.63;;;-1.70;99.90;;;;;;5051345;28;20025;-60
2021/01/11 05:38:47;;;;;;;24.50;14.32;;;-1.50;99.90;;;;;;5053756;28;20036;-59
2021/01/11 05:41:19;;;;;;;25.38;14.13;;;-1.60;99.90;;;;;;5052872;28;20040;-61
2021/01/11 05:43:46;;;;;;;;;;;-1.50;99.90;;;;;;5049919;28;20032;-59
2021/01/11 05:46:28;;;;;;;22.83;14.00;;;-1.50;99.90;;;;;;5050441;28;19912;-61
2021/01/11 05:48:59;;;;;;;24.48;14.55;;;-1.60;99.90;;;;;;5051098;28;20025;-63
2021/01/11 05:51:26;;;;;;;21.88;14.18;;;-1.60;99.90;;;;;;5051488;28;20021;-60
2021/01/11 05:53:52;;;;;;;23.35;13.60;;;-1.40;99.90;;;;;;5055842;28;20064;-62
2021/01/11 05:56:17;;;;;;;23.92;13.98;;;-1.30;99.90;;;;;;5055998;28;20091;-59
2021/01/11 05:59:05;;;;;;;24.65;15.27;;;-1.20;99.90;;;;;;5056262;28;20033;-59
2021/01/11 06:01:32;;;;;;;27.50;14.07;;;-1.50;99.90;;;;;;5054028;28;20021;-61
2021/01/11 06:03:57;;;;;;;21.23;12.32;;;-1.40;99.90;;;;;;5053771;28;20084;-60
2021/01/11 06:06:24;;;;;;;21.70;13.27;;;-1.30;99.90;;;;;;5053437;28;20366;-60
2021/01/11 06:08:51;;;;;;;22.98;13.00;;;-1.30;99.90;;;;;;5055908;28;20036;-61
2021/01/11 06:11:24;;;;;;;29.90;14.80;;;-1.20;99.90;;;;;;5055759;28;20049;-60
2021/01/11 06:13:51;;;;;;;22.55;13.45;;;-1.20;99.90;;;;;;5054454;28;20075;-60
2021/01/11 06:16:18;;;;;;;18.38;11.60;;;-1.10;99.90;;;;;;5053732;28;20044;-60
2021/01/11 06:18:49;;;;;;;20.23;11.63;;;-1.10;99.90;;;;;;5055396;28;20052;-63
2021/01/11 06:21:19;;;;;;;19.38;12.13;;;-1.10;99.90;;;;;;5055429;28;20451;-64
2021/01/11 06:23:45;;;;;;;21.23;12.93;;;-1.00;99.90;;;;;;5057166;28;20053;-60
2021/01/11 06:26:44;;;;;;;19.95;12.05;;;-1.00;99.90;;;;;;5054159;28;20537;-59
2021/01/11 06:29:30;;;;;;;19.75;11.88;;;-1.00;99.90;;;;;;5031386;28;20029;-64
2021/01/11 06:31:57;;;;;;;21.65;12.88;;;-1.10;99.90;;;;;;5054641;28;20025;-61
2021/01/11 06:34:44;;;;;;;27.60;13.48;;;-1.00;99.90;;;;;;5054601;28;20496;-60
2021/01/11 06:37:20;;;;;;;23.98;13.57;;;-1.00;99.90;;;;;;5054872;28;20139;-64
2021/01/11 06:39:46;;;;;;;22.88;12.23;;;-1.10;99.90;;;;;;5055670;28;20021;-61
2021/01/11 06:42:13;;;;;;;24.02;11.10;;;-1.20;99.90;;;;;;5054642;28;20387;-60
2021/01/11 06:44:40;;;;;;;19.35;11.75;;;-1.30;99.90;;;;;;5056599;28;20017;-66
2021/01/11 06:47:11;;;;;;;19.75;13.15;;;-1.30;99.90;;;;;;5057040;28;20041;-61
2021/01/11 06:49:37;;;;;;;22.83;13.40;;;-1.40;99.90;;;;;;5056152;28;20025;-62
2021/01/11 06:52:09;;;;;;;19.77;11.80;;;-1.40;99.90;;;;;;5056897;28;20093;-62
2021/01/11 06:54:37;;;;;;;20.05;13.18;;;-1.40;99.90;;;;;;5056493;28;20025;-67
2021/01/11 06:57:08;;;;;;;22.42;12.40;;;-1.50;99.90;;;;;;5057238;28;20376;-59
2021/01/11 06:59:38;;;;;;;21.13;12.45;;;-1.50;99.90;;;;;;5056252;28;20025;-60
2021/01/11 07:02:22;;;;;;;21.63;12.55;;;-1.60;99.90;;;;;;5056224;28;20112;-61
2021/01/11 07:04:48;;;;;;;23.80;13.65;;;-1.70;99.90;;;;;;5055138;28;20422;-63
2021/01/11 07:07:19;;;;;;;25.27;12.43;;;-1.70;99.90;;;;;;5056641;28;20462;-64
2021/01/11 07:10:04;;;;;;;31.13;16.25;;;-1.80;99.90;;;;;;5055583;28;20021;-60
2021/01/11 07:12:30;;;;;;;25.52;14.27;;;-1.90;99.90;;;;;;5055920;28;20033;-60
2021/01/11 07:15:00;;;;;;;25.88;15.02;;;-1.90;99.90;;;;;;5055552;28;20104;-63
2021/01/11 07:17:39;;;;;;;24.42;14.20;;;-1.90;99.90;;;;;;5053685;28;20052;-61
2021/01/11 07:20:13;;;;;;;28.10;14.30;;;-1.80;99.90;;;;;;5053518;28;20025;-60
2021/01/11 07:22:41;;;;;;;24.15;13.70;;;-2.00;99.90;;;;;;5053320;28;20025;-60
2021/01/11 07:25:11;;;;;;;27.02;14.52;;;-1.90;99.90;;;;;;5054639;28;20028;-60
2021/01/11 07:27:37;;;;;;;22.60;13.10;;;-1.80;99.90;;;;;;5054310;28;20029;-61
2021/01/11 07:30:03;;;;;;;25.83;14.65;;;-1.70;99.90;;;;;;5052943;28;20360;-61
2021/01/11 07:32:32;;;;;;;24.85;14.52;;;-1.60;99.90;;;;;;5053895;28;20063;-61
2021/01/11 07:35:01;;;;;;;22.23;13.25;;;-1.60;99.90;;;;;;5054468;28;20028;-61
2021/01/11 07:37:30;;;;;;;28.88;14.63;;;-1.50;99.90;;;;;;5053411;28;20159;-61
2021/01/11 07:39:55;;;;;;;26.25;14.30;;;-1.50;99.90;;;;;;5054220;28;20022;-60
2021/01/11 07:42:21;;;;;;;24.52;14.60;;;-1.30;99.90;;;;;;5052874;28;20025;-59
2021/01/11 07:44:47;;;;;;;24.52;13.05;;;-1.30;99.90;;;;;;5037331;28;20047;-62
2021/01/11 07:47:16;;;;;;;20.95;12.98;;;-1.10;99.90;;;;;;5033481;28;20037;-61
2021/01/11 07:49:49;;;;;;;25.23;12.93;;;-1.20;99.90;;;;;;5035708;28;20090;-61
2021/01/11 07:52:18;;;;;;;20.63;12.38;;;-1.20;99.90;;;;;;5033712;28;20018;-63
2021/01/11 07:54:44;;;;;;;26.75;13.48;;;-1.10;99.90;;;;;;5034043;28;20029;-60
2021/01/11 07:57:11;;;;;;;20.20;13.50;;;-0.90;99.90;;;;;;5035116;28;20120;-62
2021/01/11 07:59:41;;;;;;;23.20;12.93;;;-0.10;99.90;;;;;;5049321;28;20029;-66
2021/01/11 08:02:13;;;;;;;23.08;14.13;;;0.40;99.90;;;;;;5034699;28;20030;-62
2021/01/11 08:04:40;;;;;;;23.25;13.10;;;0.60;99.90;;;;;;5048966;28;20111;-62
2021/01/11 08:07:11;;;;;;;24.80;12.60;;;0.90;99.90;;;;;;5032321;28;20057;-62
2021/01/11 08:09:38;;;;;;;22.10;13.15;;;1.60;99.90;;;;;;5031478;28;20029;-61
2021/01/11 08:12:15;;;;;;;20.08;13.65;;;2.30;99.90;;;;;;5033858;28;20105;-60
2021/01/11 08:14:42;;;;;;;18.67;12.27;;;2.50;99.30;;;;;;5045368;28;20040;-70
2021/01/11 08:17:24;;;;;;;20.10;13.15;;;2.60;98.70;;;;;;5052425;28;20045;-62
2021/01/11 08:19:52;;;;;;;20.05;13.00;;;3.70;96.30;;;;;;5052049;28;20121;-61
2021/01/11 08:22:19;;;;;;;17.95;11.95;;;4.80;93.90;;;;;;5051336;28;20450;-63
2021/01/11 08:24:48;;;;;;;16.73;11.32;;;4.80;93.70;;;;;;5052012;28;20115;-61
2021/01/11 08:27:33;;;;;;;19.88;12.95;;;4.40;94.10;;;;;;5052328;28;20029;-72
2021/01/11 08:30:08;;;;;;;21.23;12.05;;;4.50;94.10;;;;;;5053049;28;20087;-60
2021/01/11 08:32:35;;;;;;;17.17;11.50;;;4.30;94.40;;;;;;5034818;28;20208;-60
2021/01/11 08:35:10;;;;;;;16.08;11.65;;;5.10;92.80;;;;;;5051519;28;20021;-62
2021/01/11 08:37:36;;;;;;;17.55;11.25;;;5.00;91.60;;;;;;5050417;28;20040;-64
2021/01/11 08:40:11;;;;;;;17.48;11.55;;;5.40;91.80;;;;;;5052716;28;20025;-61
2021/01/11 08:42:38;;;;;;;17.05;11.85;;;5.20;91.70;;;;;;5051172;28;20108;-72
2021/01/11 08:45:29;;;;;;;16.48;10.93;;;5.50;91.40;;;;;;5050788;28;20025;-60
2021/01/11 08:48:03;;;;;;;24.85;11.65;;;5.20;91.30;;;;;;5049406;28;20029;-60
2021/01/11 08:50:29;;;;;;;19.13;11.13;;;5.20;91.20;;;;;;5051578;28;20025;-60
2021/01/11 08:52:55;;;;;;;16.30;10.95;;;5.30;91.70;;;;;;5051416;28;20052;-60
2021/01/11 08:55:21;;;;;;;15.77;11.35;;;4.70;93.10;;;;;;5050538;28;20425;-60
2021/01/11 08:58:00;;;;;;;18.80;12.02;;;5.00;99.50;;;;;;5052379;28;20090;-61
2021/01/11 09:00:26;;;;;;;21.73;10.80;;;5.70;91.10;;;;;;5030282;28;20033;-61
2021/01/11 09:02:52;;;;;;;18.42;11.90;;;6.00;90.10;;;;;;5032109;28;20057;-61
2021/01/11 09:05:23;;;;;;;17.30;11.77;;;5.20;91.80;;;;;;5030476;28;20037;-67
2021/01/11 09:07:54;;;;;;;19.42;11.20;;;4.60;93.30;;;;;;5039786;28;20033;-63
2021/01/11 09:10:32;;;;;;;17.42;11.77;;;4.30;94.30;;;;;;5033597;28;20033;-61
2021/01/11 09:13:22;;;;;;;19.50;11.82;;;4.20;95.20;;;;;;5031493;28;20079;-65
2021/01/11 09:15:49;;;;;;;23.17;12.07;;;3.90;95.90;;;;;;5046464;28;20120;-61
2021/01/11 09:18:15;;;;;;;20.02;12.95;;;3.70;96.00;;;;;;5051229;28;20037;-61
2021/01/11 09:20:44;;;;;;;22.15;13.57;;;3.50;96.60;;;;;;5051211;28;20033;-60
2021/01/11 09:23:11;;;;;;;23.05;14.52;;;3.70;96.50;;;;;;5050128;28;20025;-61
2021/01/11 09:25:37;;;;;;;19.90;13.00;;;4.10;96.10;;;;;;5050891;28;20022;-61
2021/01/11 09:28:07;;;;;;;21.58;11.80;;;4.30;96.00;;;;;;5056829;28;20032;-65
2021/01/11 09:30:34;;;;;;;22.50;12.82;;;4.40;96.10;;;;;;5056650;28;20040;-60
2021/01/11 09:33:01;;;;;;;20.42;12.75;;;5.50;94.50;;;;;;5056784;28;20021;-59
2021/01/11 09:35:27;;;;;;;16.02;10.80;;;5.90;93.30;;;;;;5053552;28;20114;-61
2021/01/11 09:37:54;;;;;;;17.73;12.10;;;5.80;92.00;;;;;;5061137;28;20036;-61
2021/01/11 09:40:24;;;;;;;17.85;11.15;;;5.40;92.70;;;;;;5075026;28;20033;-66
2021/01/11 09:42:50;;;;;;;23.02;12.13;;;5.10;93.70;;;;;;5076056;28;20024;-61
2021/01/11 09:45:18;;;;;;;19.90;12.00;;;4.70;94.10;;;;;;5056285;28;20025;-65
2021/01/11 09:47:44;;;;;;;18.60;11.25;;;4.60;94.70;;;;;;5053379;28;20025;-64
2021/01/11 09:50:11;;;;;;;16.52;11.35;;;4.40;94.90;;;;;;5063108;28;20078;-62
2021/01/11 09:52:37;;;;;;;25.15;12.77;;;2.80;97.30;;;;;;5056989;28;20029;-61
2021/01/11 09:55:05;;;;;;;19.48;13.25;;;1.70;99.90;;;;;;5055060;28;20431;-60
2021/01/11 09:57:40;;;;;;;17.35;11.57;;;1.90;99.90;;;;;;5054619;28;20416;-59
2021/01/11 10:00:11;;;;;;;19.38;11.73;;;2.30;99.90;;;;;;5054440;28;20078;-61
2021/01/11 10:02:37;;;;;;;19.05;11.40;;;2.80;99.70;;;;;;5053802;28;20107;-62
2021/01/11 10:05:04;;;;;;;17.23;11.55;;;3.50;98.30;;;;;;5054566;28;20036;-62
2021/01/11 10:07:29;;;;;;;16.27;10.43;;;4.00;97.10;;;;;;5053194;28;20111;-59
2021/01/11 10:09:55;;;;;;;18.70;10.45;;;4.60;96.40;;;;;;5054542;28;20153;-61
2021/01/11 10:12:20;;;;;;;18.90;11.07;;;5.10;94.20;;;;;;5054637;28;20028;-71
2021/01/11 10:14:46;;;;;;;18.00;11.60;;;5.00;94.60;;;;;;5055905;28;20028;-69
2021/01/11 10:17:12;;;;;;;18.70;11.18;;;5.70;93.10;;;;;;5055711;28;20029;-62
2021/01/11 10:19:38;;;;;;;18.65;11.88;;;5.70;93.10;;;;;;5055543;28;20029;-60
2021/01/11 10:22:04;;;;;;;18.70;12.13;;;5.10;95.00;;;;;;5055742;28;20025;-62
2021/01/11 10:24:30;;;;;;;22.17;13.13;;;5.40;94.20;;;;;;5053522;28;20467;-59
2021/01/11 10:26:56;;;;;;;17.42;11.65;;;5.80;92.80;;;;;;5055350;28;20439;-62
2021/01/11 10:29:24;;;;;;;18.33;11.88;;;5.80;93.40;;;;;;5055210;28;20060;-65
2021/01/11 10:31:51;;;;;;;20.77;11.88;;;5.90;93.30;;;;;;5053773;28;20075;-62
2021/01/11 10:34:18;;;;;;;29.75;13.13;;;6.70;91.70;;;;;;5053482;28;20053;-60
2021/01/11 10:36:49;;;;;;;20.95;11.63;;;6.10;91.20;;;;;;5052796;28;20687;-59
2021/01/11 10:39:23;;;;;;;18.92;12.50;;;5.30;93.60;;;;;;5053594;28;20091;-63
2021/01/11 10:41:53;;;;;;;22.05;12.52;;;4.80;94.50;;;;;;5054837;28;20474;-61
2021/01/11 10:44:20;;;;;;;22.55;12.18;;;4.30;95.90;;;;;;5055249;28;20039;-61
2021/01/11 10:46:46;;;;;;;22.02;11.82;;;4.00;96.90;;;;;;5058619;28;20045;-62
2021/01/11 10:49:11;;;;;;;19.23;13.05;;;3.70;97.40;;;;;;5059202;28;20017;-61
2021/01/11 10:51:37;;;;;;;23.48;13.93;;;3.50;98.10;;;;;;5034239;28;20021;-61
2021/01/11 10:54:04;;;;;;;24.25;13.10;;;3.60;98.40;;;;;;5049405;28;20455;-61
2021/01/11 10:56:30;;;;;;;26.92;14.98;;;4.10;97.80;;;;;;5033599;28;20076;-62
2021/01/11 10:58:56;;;;;;;24.38;13.52;;;4.90;96.10;;;;;;5034290;28;20037;-62
2021/01/11 11:01:21;;;;;;;20.92;13.20;;;5.10;95.30;;;;;;5053448;28;20025;-61
2021/01/11 11:03:48;;;;;;;24.90;12.93;;;5.20;94.60;;;;;;5053079;28;20051;-59
2021/01/11 11:06:13;;;;;;;28.63;13.07;;;5.80;94.30;;;;;;5053773;28;20037;-63
2021/01/11 11:08:40;;;;;;;18.13;11.85;;;5.90;93.90;;;;;;5054246;28;20155;-62
2021/01/11 11:11:06;;;;;;;19.30;12.57;;;6.10;93.30;;;;;;5053865;28;20055;-62
2021/01/11 11:13:32;;;;;;;22.10;13.52;;;6.10;93.30;;;;;;5054091;28;20081;-65
2021/01/11 11:15:58;;;;;;;24.15;13.23;;;6.40;93.00;;;;;;5054493;28;20033;-61
2021/01/11 11:18:24;;;;;;;20.15;13.32;;;5.50;93.90;;;;;;5053236;28;20494;-70
2021/01/11 11:20:50;;;;;;;18.60;12.43;;;5.20;95.60;;;;;;5054481;28;20025;-60
2021/01/11 11:23:16;;;;;;;19.95;12.80;;;4.80;96.60;;;;;;5053482;28;20017;-62
2021/01/11 11:25:45;;;;;;;21.33;14.02;;;5.00;96.30;;;;;;5052745;28;20025;-62
2021/01/11 11:28:11;;;;;;;22.75;13.82;;;5.50;95.20;;;;;;5053103;28;20037;-61
2021/01/11 11:30:37;;;;;;;25.10;13.23;;;5.20;94.90;;;;;;5052359;28;20024;-64
2021/01/11 11:33:03;;;;;;;21.60;14.18;;;5.00;95.60;;;;;;5053674;28;20429;-61
2021/01/11 11:35:29;;;;;;;20.35;13.63;;;4.90;96.30;;;;;;5053785;28;20060;-63
2021/01/11 11:37:56;;;;;;;20.00;12.82;;;5.00;96.10;;;;;;5053813;28;20037;-63
2021/01/11 11:40:21;;;;;;;18.45;12.65;;;5.30;95.50;;;;;;5054300;28;20025;-61
2021/01/11 11:42:47;;;;;;;20.45;13.02;;;5.10;95.80;;;;;;5053783;28;20108;-61
2021/01/11 11:45:15;;;;;;;20.23;13.25;;;5.30;95.80;;;;;;5052869;28;20033;-64
2021/01/11 11:47:42;;;;;;;22.10;13.65;;;5.60;95.60;;;;;;5051522;28;20493;-62
2021/01/11 11:50:10;;;;;;;18.30;12.80;;;5.60;95.60;;;;;;5035183;28;20025;-61
2021/01/11 11:52:37;;;;;;;21.30;14.07;;;5.90;94.70;;;;;;5052914;28;20531;-64
2021/01/11 11:55:04;;;;;;;21.77;11.60;;;5.80;95.10;;;;;;5052256;28;20108;-60
2021/01/11 11:57:29;;;;;;;19.45;12.82;;;6.20;93.70;;;;;;5051788;28;20367;-62
2021/01/11 11:59:55;;;;;;;21.10;11.82;;;6.30;93.40;;;;;;5053763;28;20108;-62
2021/01/11 12:02:21;;;;;;;20.40;12.75;;;6.20;92.80;;;;;;5052011;28;20078;-59
2021/01/11 12:04:46;;;;;;;16.48;12.00;;;7.00;92.00;;;;;;5051620;28;20126;-60
2021/01/11 12:07:16;;;;;;;18.42;12.63;;;7.10;91.40;;;;;;5052459;28;20475;-62
2021/01/11 12:09:42;;;;;;;17.70;12.13;;;7.50;90.70;;;;;;5052467;28;20025;-62
2021/01/11 12:12:08;;;;;;;17.98;11.23;;;6.70;91.20;;;;;;5052799;28;20454;-62
2021/01/11 12:14:34;;;;;;;20.90;11.38;;;6.70;90.90;;;;;;5051376;28;20025;-60
2021/01/11 12:17:01;;;;;;;16.38;11.00;;;7.10;91.00;;;;;;5033236;28;20091;-62
2021/01/11 12:19:27;;;;;;;16.73;11.40;;;6.90;90.30;;;;;;5033072;28;20455;-70
2021/01/11 12:21:53;;;;;;;18.00;11.68;;;7.00;90.50;;;;;;5032108;28;20029;-61
2021/01/11 12:24:19;;;;;;;19.60;11.27;;;7.30;90.10;;;;;;5032979;28;20022;-60
2021/01/11 12:26:47;;;;;;;21.45;13.25;;;7.20;90.20;;;;;;5032610;28;20029;-61
2021/01/11 12:29:16;;;;;;;16.65;11.80;;;6.70;90.70;;;;;;5031849;28;20036;-61
2021/01/11 12:31:43;;;;;;;18.58;12.63;;;6.00;92.90;;;;;;5030954;28;20025;-62
2021/01/11 12:34:09;;;;;;;23.98;13.40;;;4.50;95.90;;;;;;5031668;28;20030;-60
2021/01/11 12:36:36;;;;;;;18.45;12.05;;;4.70;95.40;;;;;;5032319;28;20040;-61
2021/01/11 12:39:11;;;;;;;22.90;12.88;;;4.60;96.20;;;;;;5033159;28;20026;-62
2021/01/11 12:41:38;;;;;;;19.55;12.90;;;4.70;96.30;;;;;;5032775;28;20026;-61